Time;durP1;ratioP1;P1;durP2;ratioP2;P2;SDS_P1;SDS_P2;PMS_P1;PMS_P2;Temp;Humidity;BMP_temperature;BMP_pressure;BME280_temperature;BME280_humidity;BME280_pressure;Samples;Min_cycle;Max_cycle;Signal;HPM_P1;HPM_P2
2023/09/13 00:00:37;;;;;;;9.02;3.95;;;;;;;22.76;46.42;99316.16;4476814;31;34562;-70
2023/09/13 00:03:05;;;;;;;6.43;3.47;;;;;;;22.83;46.33;99316.16;4467131;31;35083;-70
2023/09/13 00:05:33;;;;;;;7.80;3.15;;;;;;;22.78;46.39;99314.03;4463307;32;34305;-71
2023/09/13 00:08:01;;;;;;;5.10;2.12;;;;;;;22.75;46.58;99314.44;4467555;32;33645;-71
2023/09/13 00:10:29;;;;;;;6.25;3.08;;;;;;;22.88;46.27;99308.19;4471543;32;34208;-70
2023/09/13 00:12:56;;;;;;;7.45;3.08;;;;;;;22.89;46.36;99315.34;4464910;32;34735;-71
2023/09/13 00:15:24;;;;;;;8.77;3.30;;;;;;;22.82;46.81;99313.63;4472009;32;33791;-70
2023/09/13 00:17:52;;;;;;;5.28;2.30;;;;;;;22.87;46.71;99317.44;4478446;32;34093;-72
2023/09/13 00:20:19;;;;;;;7.32;3.60;;;;;;;22.92;46.56;99306.75;4467240;32;33508;-72
2023/09/13 00:22:48;;;;;;;8.85;3.78;;;;;;;22.88;46.46;99302.75;4468201;32;33575;-72
2023/09/13 00:25:16;;;;;;;6.10;2.42;;;;;;;22.93;46.25;99305.75;4466587;32;35167;-72
2023/09/13 00:27:43;;;;;;;9.23;4.85;;;;;;;22.98;46.01;99302.38;4473177;32;33576;-69
2023/09/13 00:30:12;;;;;;;6.82;3.00;;;;;;;22.98;45.93;99302.38;4468018;32;32947;-69
2023/09/13 00:32:39;;;;;;;9.27;3.33;;;;;;;22.98;45.84;99303.22;4465740;32;33565;-70
2023/09/13 00:35:08;;;;;;;11.07;3.47;;;;;;;22.92;46.00;99300.44;4466733;32;34190;-70
2023/09/13 00:37:35;;;;;;;5.05;2.87;;;;;;;22.84;46.31;99297.91;4466663;32;34549;-70
2023/09/13 00:40:04;;;;;;;8.32;2.67;;;;;;;22.91;46.34;99294.16;4469666;31;33618;-69
2023/09/13 00:42:32;;;;;;;12.37;4.00;;;;;;;22.93;46.49;99297.56;4465280;32;33600;-71
2023/09/13 00:45:00;;;;;;;8.15;3.55;;;;;;;22.85;46.41;99297.69;4469827;32;33449;-70
2023/09/13 00:47:28;;;;;;;9.20;3.70;;;;;;;22.51;46.37;99296.75;4463360;32;33641;-71
2023/09/13 00:49:55;;;;;;;7.70;3.97;;;;;;;22.59;46.17;99300.31;4465732;32;33046;-70
2023/09/13 00:52:25;;;;;;;13.02;4.62;;;;;;;22.38;46.83;99304.84;4465215;32;34960;-72
2023/09/13 00:54:53;;;;;;;12.35;3.28;;;;;;;22.33;47.01;99302.72;4473341;32;34632;-72
2023/09/13 00:57:21;;;;;;;8.80;3.80;;;;;;;22.53;46.69;99302.81;4462974;31;33271;-73
2023/09/13 00:59:49;;;;;;;8.70;3.47;;;;;;;22.61;46.96;99303.69;4464939;32;34442;-72
2023/09/13 01:02:17;;;;;;;13.50;4.65;;;;;;;22.68;47.02;99301.84;4476107;31;34463;-72
2023/09/13 01:04:45;;;;;;;7.10;3.75;;;;;;;22.61;46.87;99304.53;4466381;32;34687;-72
2023/09/13 01:07:13;;;;;;;10.18;3.40;;;;;;;22.71;46.46;99301.44;4479898;31;34130;-70
2023/09/13 01:09:42;;;;;;;6.03;3.17;;;;;;;22.69;46.45;99304.34;4464753;32;33316;-70
2023/09/13 01:12:09;;;;;;;5.72;3.28;;;;;;;22.58;46.63;99307.66;4478599;31;33564;-69
2023/09/13 01:14:37;;;;;;;6.45;3.22;;;;;;;22.59;46.69;99303.88;4481830;31;33735;-70
2023/09/13 01:17:16;;;;;;;8.68;3.37;;;;;;;22.47;46.84;99313.69;4489729;31;33706;-69
2023/09/13 01:20:01;;;;;;;14.45;3.80;;;;;;;22.34;46.97;99317.19;4461607;32;32882;-70
2023/09/13 01:22:37;;;;;;;23.35;3.85;;;;;;;22.07;47.62;99310.72;4446887;32;33674;-68
2023/09/13 01:25:26;;;;;;;13.43;3.45;;;;;;;22.25;47.25;99308.34;4446758;32;35308;-69
2023/09/13 01:28:26;;;;;;;8.80;3.42;;;;;;;22.25;47.20;99310.25;4445489;32;34639;-71
2023/09/13 01:30:54;;;;;;;6.15;3.87;;;;;;;22.30;47.68;99308.56;4457512;32;33736;-71
2023/09/13 01:33:22;;;;;;;4.18;2.45;;;;;;;22.26;47.59;99317.38;4435308;32;34033;-71
2023/09/13 01:35:51;;;;;;;8.55;3.40;;;;;;;22.31;47.51;99309.41;4441023;32;33730;-71
2023/09/13 01:38:18;;;;;;;6.93;3.78;;;;;;;22.36;47.51;99319.72;4443897;32;34618;-71
2023/09/13 01:40:47;;;;;;;4.75;2.15;;;;;;;22.30;47.10;99315.91;4444605;32;33364;-71
2023/09/13 01:43:15;;;;;;;9.48;2.95;;;;;;;22.28;47.50;99307.09;4444138;32;33881;-70
2023/09/13 01:45:43;;;;;;;4.03;2.42;;;;;;;22.31;47.68;99314.84;4437710;32;33460;-70
2023/09/13 01:48:12;;;;;;;12.30;2.92;;;;;;;22.33;47.26;99313.63;4436446;32;35059;-71
2023/09/13 01:50:40;;;;;;;6.90;2.58;;;;;;;22.33;47.13;99307.34;4455944;32;33327;-71
2023/09/13 01:53:08;;;;;;;8.43;3.15;;;;;;;22.38;46.92;99306.75;4445024;32;34616;-71
2023/09/13 01:55:36;;;;;;;6.18;2.60;;;;;;;22.42;46.88;99313.47;4459144;32;33805;-71
2023/09/13 01:58:03;;;;;;;9.98;3.58;;;;;;;22.35;46.90;99312.59;4461738;32;33761;-71
2023/09/13 02:00:31;;;;;;;6.40;2.95;;;;;;;22.33;46.89;99318.25;4466772;32;34365;-71
2023/09/13 02:02:59;;;;;;;12.30;3.47;;;;;;;22.30;46.88;99321.38;4470640;32;34612;-71
2023/09/13 02:05:27;;;;;;;10.57;4.20;;;;;;;22.20;47.02;99312.72;4470959;32;33830;-72
2023/09/13 02:07:55;;;;;;;8.32;3.30;;;;;;;22.12;47.22;99318.28;4463129;32;34986;-72
2023/09/13 02:10:22;;;;;;;10.50;4.18;;;;;;;22.10;47.40;99318.50;4466619;32;33188;-72
2023/09/13 02:12:50;;;;;;;10.98;3.28;;;;;;;22.07;47.45;99310.72;4462142;32;33881;-72
2023/09/13 02:15:18;;;;;;;12.35;4.00;;;;;;;22.09;47.37;99311.38;4461469;32;34216;-73
2023/09/13 02:17:45;;;;;;;6.05;3.05;;;;;;;21.99;47.65;99314.44;4473072;32;33574;-72
2023/09/13 02:20:15;;;;;;;14.23;3.35;;;;;;;21.98;47.63;99307.28;4463637;32;33227;-72
2023/09/13 02:22:42;;;;;;;12.68;4.00;;;;;;;22.01;47.59;99308.78;4472815;32;33821;-70
2023/09/13 02:25:10;;;;;;;8.82;4.47;;;;;;;21.93;47.77;99309.78;4471291;32;35011;-69
2023/09/13 02:27:37;;;;;;;5.28;2.97;;;;;;;21.84;47.95;99300.91;4469526;32;33961;-69
2023/09/13 02:30:07;;;;;;;6.57;3.17;;;;;;;21.89;47.79;99303.03;4468388;31;33082;-70
2023/09/13 02:32:34;;;;;;;7.57;3.00;;;;;;;21.87;47.80;99303.25;4477269;32;33767;-70
2023/09/13 02:35:03;;;;;;;25.00;3.85;;;;;;;21.83;47.91;99309.28;4476838;32;34031;-70
2023/09/13 02:37:30;;;;;;;7.40;3.28;;;;;;;21.76;47.91;99309.22;4470975;32;33859;-71
2023/09/13 02:39:58;;;;;;;6.78;2.92;;;;;;;21.76;47.95;99306.50;4468533;31;33226;-70
2023/09/13 02:42:27;;;;;;;8.02;3.60;;;;;;;21.76;48.06;99305.66;4465808;32;35171;-70
2023/09/13 02:44:55;;;;;;;5.05;2.83;;;;;;;21.71;48.11;99314.44;4473999;32;34313;-70
2023/09/13 02:47:22;;;;;;;8.02;3.58;;;;;;;21.73;48.03;99314.22;4475712;32;35156;-70
2023/09/13 02:49:50;;;;;;;9.15;3.35;;;;;;;21.71;48.00;99310.88;4472837;32;34627;-71
2023/09/13 02:52:27;;;;;;;11.50;3.12;;;;;;;21.63;48.18;99309.94;4466127;32;33193;-70
2023/09/13 02:54:55;;;;;;;7.07;3.70;;;;;;;21.61;48.26;99313.94;4467109;32;33873;-70
2023/09/13 02:57:23;;;;;;;16.17;4.68;;;;;;;21.67;48.10;99309.56;4465402;32;33781;-70
2023/09/13 02:59:51;;;;;;;7.10;2.78;;;;;;;21.63;48.17;99320.00;4468675;32;34722;-70
2023/09/13 03:02:20;;;;;;;5.62;2.75;;;;;;;21.65;48.14;99312.50;4471041;32;33837;-70
2023/09/13 03:04:52;;;;;;;6.97;2.78;;;;;;;21.64;48.16;99313.53;4467641;32;35263;-73
2023/09/13 03:07:20;;;;;;;9.57;5.60;;;;;;;21.59;48.20;99313.28;4465992;32;33686;-73
2023/09/13 03:09:53;;;;;;;9.60;5.07;;;;;;;21.49;48.43;99312.78;4471527;32;34437;-73
2023/09/13 03:12:21;;;;;;;11.95;5.07;;;;;;;21.56;48.22;99313.66;4472944;32;35394;-73
2023/09/13 03:14:49;;;;;;;10.40;4.75;;;;;;;21.54;48.26;99305.72;4481030;32;33678;-73
2023/09/13 03:17:16;;;;;;;8.55;3.50;;;;;;;21.58;48.16;99300.72;4476073;32;33451;-73
2023/09/13 03:19:45;;;;;;;7.72;3.00;;;;;;;21.53;48.19;99301.28;4473449;32;34809;-73
2023/09/13 03:22:12;;;;;;;6.78;2.83;;;;;;;21.62;47.96;99302.81;4473450;32;34593;-73
2023/09/13 03:24:41;;;;;;;9.30;3.70;;;;;;;21.62;48.08;99304.72;4479902;32;34975;-73
2023/09/13 03:27:09;;;;;;;4.03;1.92;;;;;;;21.59;48.20;99302.38;4480009;32;33693;-73
2023/09/13 03:29:37;;;;;;;9.00;3.87;;;;;;;21.58;48.14;99300.72;4471871;32;31750;-73
2023/09/13 03:32:06;;;;;;;4.53;2.70;;;;;;;21.54;48.25;99297.53;4473894;32;34592;-72
2023/09/13 03:34:35;;;;;;;4.40;3.15;;;;;;;21.56;48.25;99303.59;4472082;32;34672;-73
2023/09/13 03:37:04;;;;;;;9.73;3.87;;;;;;;21.46;48.48;99303.09;4456592;32;33635;-72
2023/09/13 03:39:34;;;;;;;4.43;2.92;;;;;;;21.44;48.57;99301.63;4464660;32;34118;-72
2023/09/13 03:42:02;;;;;;;10.88;3.45;;;;;;;21.46;48.50;99291.38;4472047;32;33981;-71
2023/09/13 03:44:30;;;;;;;16.50;4.00;;;;;;;21.47;48.48;99299.34;4471911;32;33835;-70
2023/09/13 03:46:58;;;;;;;12.45;3.08;;;;;;;21.45;48.62;99300.59;4472266;32;34921;-71
2023/09/13 03:49:26;;;;;;;15.52;3.60;;;;;;;21.46;48.70;99300.37;4465669;32;34011;-70
2023/09/13 03:51:54;;;;;;;16.25;4.35;;;;;;;21.37;48.85;99296.94;4462609;32;33749;-71
2023/09/13 03:54:22;;;;;;;21.23;4.32;;;;;;;21.45;48.54;99300.59;4481317;32;34403;-71
2023/09/13 03:56:50;;;;;;;9.02;3.35;;;;;;;21.40;48.62;99299.28;4482016;32;35002;-71
2023/09/13 03:59:18;;;;;;;12.25;4.05;;;;;;;21.39;48.73;99297.59;4470606;32;33296;-71
2023/09/13 04:01:46;;;;;;;16.25;4.30;;;;;;;21.30;48.98;99301.47;4460707;32;33872;-71
2023/09/13 04:04:14;;;;;;;10.80;3.20;;;;;;;21.32;48.95;99304.00;4468242;32;34206;-71
2023/09/13 04:06:41;;;;;;;10.23;3.08;;;;;;;21.33;48.96;99311.12;4477495;32;33460;-71
2023/09/13 04:09:10;;;;;;;7.37;3.67;;;;;;;21.35;48.90;99306.38;4467870;32;33403;-71
2023/09/13 04:11:38;;;;;;;4.47;2.45;;;;;;;21.34;49.05;99304.62;4465520;32;35030;-72
2023/09/13 04:14:07;;;;;;;6.47;3.70;;;;;;;21.28;49.18;99310.84;4451681;32;33844;-72
2023/09/13 04:16:34;;;;;;;10.20;4.50;;;;;;;21.20;49.28;99313.72;4475328;32;34642;-71
2023/09/13 04:19:02;;;;;;;4.75;3.00;;;;;;;21.15;49.33;99306.97;4477756;32;33166;-71
2023/09/13 04:21:30;;;;;;;13.27;3.65;;;;;;;21.13;49.34;99309.03;4471936;32;33566;-71
2023/09/13 04:23:58;;;;;;;7.75;3.33;;;;;;;21.14;49.34;99316.16;4466594;32;32637;-70
2023/09/13 04:26:26;;;;;;;7.97;3.78;;;;;;;21.16;49.35;99319.53;4470988;32;33564;-70
2023/09/13 04:28:54;;;;;;;9.27;4.05;;;;;;;21.13;49.45;99317.22;4453093;32;33534;-70
2023/09/13 04:31:21;;;;;;;9.63;3.58;;;;;;;21.15;49.42;99315.16;4453117;32;32236;-69
2023/09/13 04:33:54;;;;;;;13.73;3.80;;;;;;;21.20;49.54;99314.56;4461556;32;34056;-69
2023/09/13 04:36:23;;;;;;;4.62;2.87;;;;;;;21.27;49.56;99312.72;4452947;32;34022;-69
2023/09/13 04:38:51;;;;;;;4.22;2.75;;;;;;;21.32;49.59;99323.06;4446689;32;32921;-71
2023/09/13 04:41:19;;;;;;;5.18;3.03;;;;;;;21.26;49.62;99329.28;4460357;32;33397;-71
2023/09/13 04:43:47;;;;;;;13.57;3.87;;;;;;;21.25;49.44;99325.72;4445765;32;35170;-71
2023/09/13 04:46:16;;;;;;;9.23;4.28;;;;;;;21.27;49.37;99333.66;4449930;32;34781;-71
2023/09/13 04:48:44;;;;;;;8.25;4.03;;;;;;;21.25;49.39;99336.59;4460135;32;34714;-71
2023/09/13 04:51:12;;;;;;;12.75;4.78;;;;;;;21.14;49.77;99328.94;4455040;32;33459;-71
2023/09/13 04:53:40;;;;;;;10.10;4.22;;;;;;;21.20;49.68;99332.78;4452159;32;34058;-71
2023/09/13 04:56:08;;;;;;;8.93;4.30;;;;;;;21.32;49.35;99333.94;4444974;32;32517;-71
2023/09/13 04:58:36;;;;;;;8.13;4.57;;;;;;;21.39;49.30;99337.59;4451762;32;33203;-71
2023/09/13 05:01:06;;;;;;;14.82;3.87;;;;;;;21.38;49.23;99331.31;4453277;32;33717;-71
2023/09/13 05:03:34;;;;;;;10.32;4.72;;;;;;;21.46;49.11;99337.66;4464344;32;34331;-71
2023/09/13 05:06:02;;;;;;;12.32;4.68;;;;;;;21.55;49.02;99341.94;4455445;32;33690;-69
2023/09/13 05:08:34;;;;;;;7.35;3.67;;;;;;;21.63;48.82;99339.06;4480750;31;33222;-69
2023/09/13 05:11:02;;;;;;;9.77;5.00;;;;;;;21.70;48.96;99341.84;4481107;31;32302;-69
2023/09/13 05:13:31;;;;;;;10.20;4.32;;;;;;;21.77;49.05;99342.78;4481551;31;32815;-69
2023/09/13 05:15:59;;;;;;;8.52;4.40;;;;;;;21.86;48.85;99342.44;4482360;32;33939;-68
2023/09/13 05:18:26;;;;;;;12.43;4.62;;;;;;;21.95;48.80;99345.00;4480450;31;33402;-69
2023/09/13 05:20:54;;;;;;;7.03;3.90;;;;;;;22.05;48.80;99346.34;4481150;31;33798;-69
2023/09/13 05:23:22;;;;;;;17.10;7.15;;;;;;;22.23;48.55;99351.31;4482174;31;34815;-69
2023/09/13 05:25:49;;;;;;;13.25;4.00;;;;;;;22.34;48.35;99352.63;4480264;31;33618;-69
2023/09/13 05:28:17;;;;;;;7.25;3.80;;;;;;;22.53;48.03;99351.91;4480769;31;33678;-70
2023/09/13 05:30:46;;;;;;;7.32;4.12;;;;;;;22.71;48.03;99359.56;4480828;31;33614;-69
2023/09/13 05:33:14;;;;;;;12.10;4.40;;;;;;;22.76;47.79;99354.34;4481347;31;34015;-70
2023/09/13 05:35:42;;;;;;;16.00;7.05;;;;;;;22.88;47.02;99362.78;4474907;31;35238;-70
2023/09/13 05:38:10;;;;;;;7.47;3.83;;;;;;;22.87;47.13;99366.56;4478645;31;33483;-70
2023/09/13 05:40:37;;;;;;;13.60;4.82;;;;;;;22.90;47.26;99363.41;4479157;31;33475;-69
2023/09/13 05:43:05;;;;;;;11.43;5.75;;;;;;;22.89;47.56;99369.94;4481158;31;35372;-70
2023/09/13 05:45:33;;;;;;;12.35;4.95;;;;;;;22.84;47.92;99369.69;4472502;31;34688;-70
2023/09/13 05:48:02;;;;;;;16.12;5.53;;;;;;;22.93;48.01;99363.03;4480414;31;32850;-69
2023/09/13 05:50:29;;;;;;;9.55;4.55;;;;;;;22.98;48.07;99367.87;4481833;32;33855;-70
2023/09/13 05:52:57;;;;;;;9.55;4.70;;;;;;;23.10;48.12;99363.50;4479614;31;33819;-70
2023/09/13 05:55:25;;;;;;;12.35;5.90;;;;;;;23.25;47.90;99361.47;4477979;31;34052;-70
2023/09/13 05:57:53;;;;;;;7.03;4.37;;;;;;;23.38;47.76;99357.94;4479606;31;33226;-70
2023/09/13 06:00:21;;;;;;;7.03;4.62;;;;;;;23.52;47.67;99356.06;4477614;31;34404;-70
2023/09/13 06:02:48;;;;;;;15.48;5.93;;;;;;;23.63;47.46;99363.66;4472123;32;35175;-70
2023/09/13 06:05:17;;;;;;;8.27;4.87;;;;;;;23.77;47.26;99363.69;4464013;32;33758;-75
2023/09/13 06:07:44;;;;;;;9.18;5.32;;;;;;;23.85;46.68;99367.06;4463791;32;33924;-69
2023/09/13 06:10:12;;;;;;;11.25;4.50;;;;;;;23.94;46.54;99367.66;4466193;32;32319;-67
2023/09/13 06:12:40;;;;;;;10.30;4.43;;;;;;;24.00;46.55;99375.03;4465401;32;35157;-67
2023/09/13 06:15:08;;;;;;;13.77;7.10;;;;;;;24.11;45.98;99368.94;4469142;32;33607;-67
2023/09/13 06:17:39;;;;;;;12.82;5.97;;;;;;;24.19;46.14;99370.59;4479519;32;33337;-67
2023/09/13 06:20:07;;;;;;;13.02;4.50;;;;;;;24.33;46.23;99366.81;4463337;32;33355;-67
2023/09/13 06:22:35;;;;;;;14.45;5.18;;;;;;;24.46;46.48;99365.94;4464435;32;34006;-71
2023/09/13 06:25:03;;;;;;;8.80;4.00;;;;;;;24.56;46.64;99355.44;4462547;32;34973;-70
2023/09/13 06:27:36;;;;;;;10.48;5.45;;;;;;;24.62;45.67;99364.66;4467135;32;33455;-69
2023/09/13 06:30:05;;;;;;;14.85;5.70;;;;;;;24.72;45.26;99362.31;4462386;32;35029;-73
2023/09/13 06:32:32;;;;;;;9.15;4.80;;;;;;;24.92;44.79;99361.41;4465012;32;32779;-69
2023/09/13 06:35:11;;;;;;;8.02;4.03;;;;;;;24.92;44.37;99361.41;4471265;32;34168;-70
2023/09/13 06:37:44;;;;;;;40.15;5.45;;;;;;;24.98;44.54;99350.41;4479153;32;34581;-70
2023/09/13 06:40:15;;;;;;;10.15;5.12;;;;;;;25.20;44.79;99358.31;4474963;32;33404;-68
2023/09/13 06:42:43;;;;;;;8.38;4.05;;;;;;;25.22;44.87;99356.22;4467819;32;34912;-68
2023/09/13 06:45:27;;;;;;;10.48;4.32;;;;;;;25.29;45.03;99354.28;4469801;32;34627;-67
2023/09/13 06:47:57;;;;;;;16.77;5.93;;;;;;;25.26;45.19;99360.19;4469897;32;33094;-68
2023/09/13 06:50:26;;;;;;;17.92;5.62;;;;;;;25.42;45.02;99356.09;4466889;32;33646;-68
2023/09/13 06:53:14;;;;;;;13.77;6.30;;;;;;;25.52;44.85;99357.31;4467891;32;35050;-68
2023/09/13 06:56:02;;;;;;;18.23;5.78;;;;;;;25.42;43.73;99358.84;4472535;32;34022;-67
2023/09/13 06:58:35;;;;;;;13.85;5.50;;;;;;;25.41;43.36;99355.25;4470624;32;34146;-69
2023/09/13 07:01:05;;;;;;;16.35;7.03;;;;;;;25.27;43.94;99346.28;4469080;32;33688;-68
2023/09/13 07:03:53;;;;;;;16.73;4.37;;;;;;;25.17;44.44;99354.16;4467427;32;33838;-68
2023/09/13 07:06:30;;;;;;;12.63;6.85;;;;;;;25.43;43.99;99344.09;4466319;32;33629;-69
2023/09/13 07:08:58;;;;;;;13.57;6.95;;;;;;;25.31;43.64;99355.75;4468184;32;31542;-69
2023/09/13 07:11:25;;;;;;;14.60;7.53;;;;;;;25.38;43.77;99361.19;4473923;32;35517;-70
2023/09/13 07:13:54;;;;;;;23.55;6.10;;;;;;;25.31;43.53;99355.75;4474345;32;33875;-70
2023/09/13 07:16:22;;;;;;;11.10;4.50;;;;;;;25.53;43.90;99361.72;4468156;32;35097;-70
2023/09/13 07:18:50;;;;;;;12.88;4.95;;;;;;;25.41;44.00;99358.00;4465284;32;33640;-70
2023/09/13 07:21:17;;;;;;;20.80;6.00;;;;;;;25.54;44.29;99363.38;4468330;32;33929;-68
2023/09/13 07:23:45;;;;;;;15.38;4.03;;;;;;;25.63;44.46;99369.44;4467408;32;33981;-67
2023/09/13 07:26:14;;;;;;;14.02;5.28;;;;;;;25.82;43.82;99364.91;4466719;32;34174;-68
2023/09/13 07:28:41;;;;;;;7.95;4.65;;;;;;;25.88;44.07;99363.19;4469789;32;34474;-68
2023/09/13 07:31:10;;;;;;;14.45;5.82;;;;;;;25.49;45.03;99371.44;4464185;32;34667;-68
2023/09/13 07:33:37;;;;;;;16.83;5.22;;;;;;;26.02;43.48;99370.22;4470183;32;34763;-68
2023/09/13 07:36:05;;;;;;;19.00;6.47;;;;;;;26.16;43.45;99365.47;4473605;32;33833;-68
2023/09/13 07:38:34;;;;;;;9.73;4.15;;;;;;;25.94;44.06;99365.00;4469234;32;33493;-70
2023/09/13 07:41:03;;;;;;;7.85;4.47;;;;;;;26.15;43.97;99358.31;4468904;32;35189;-69
2023/09/13 07:43:30;;;;;;;13.40;5.37;;;;;;;26.22;44.21;99368.13;4476283;32;33922;-68
2023/09/13 07:45:59;;;;;;;10.20;4.35;;;;;;;26.13;44.27;99364.03;4475334;32;34526;-68
2023/09/13 07:48:27;;;;;;;20.42;7.20;;;;;;;26.02;44.59;99370.22;4478565;32;33627;-68
2023/09/13 07:50:55;;;;;;;10.35;4.68;;;;;;;26.39;44.45;99371.16;4474702;32;34184;-69
2023/09/13 07:53:25;;;;;;;16.10;6.68;;;;;;;26.57;44.50;99366.78;4473428;32;35047;-69
2023/09/13 07:55:52;;;;;;;12.02;6.50;;;;;;;26.87;43.56;99372.31;4472286;32;33616;-70
2023/09/13 07:58:20;;;;;;;20.27;6.72;;;;;;;27.08;43.89;99373.75;4468519;32;33685;-69
2023/09/13 08:00:48;;;;;;;12.60;5.40;;;;;;;27.28;43.67;99379.84;4474356;32;36939;-72
2023/09/13 08:03:16;;;;;;;15.25;5.93;;;;;;;27.13;43.13;99368.44;4479294;32;34058;-71
2023/09/13 08:05:45;;;;;;;12.02;4.93;;;;;;;27.16;43.61;99373.50;4471387;32;34770;-70
2023/09/13 08:08:22;;;;;;;11.18;5.12;;;;;;;27.29;43.51;99380.72;4450202;32;34499;-71
2023/09/13 08:10:50;;;;;;;12.27;5.95;;;;;;;27.80;42.55;99382.94;4450696;32;34052;-71
2023/09/13 08:13:22;;;;;;;16.45;7.28;;;;;;;28.08;41.40;99378.66;4449613;32;34264;-70
2023/09/13 08:15:50;;;;;;;15.50;7.47;;;;;;;28.03;41.13;99384.06;4444779;32;33497;-70
2023/09/13 08:18:18;;;;;;;23.87;7.12;;;;;;;28.30;41.47;99378.91;4449036;32;33458;-70
2023/09/13 08:20:46;;;;;;;14.82;6.25;;;;;;;28.14;40.83;99379.62;4449516;32;34126;-70
2023/09/13 08:23:14;;;;;;;13.38;5.30;;;;;;;28.39;41.04;99379.41;4449283;32;34225;-70
2023/09/13 08:25:43;;;;;;;9.82;5.12;;;;;;;28.15;40.62;99387.62;4448444;32;34581;-71
2023/09/13 08:28:11;;;;;;;15.23;5.87;;;;;;;28.15;39.73;99384.88;4448640;32;33473;-71
2023/09/13 08:30:39;;;;;;;11.27;6.07;;;;;;;28.42;39.25;99382.53;4448338;32;33776;-71
2023/09/13 08:33:07;;;;;;;11.60;6.03;;;;;;;28.48;39.23;99375.25;4422548;32;33903;-71
2023/09/13 08:35:35;;;;;;;11.68;6.82;;;;;;;28.50;37.67;99375.81;4417710;32;33569;-70
2023/09/13 08:38:03;;;;;;;16.50;6.43;;;;;;;28.37;39.74;99381.56;4417790;32;34108;-71
2023/09/13 08:40:31;;;;;;;18.73;6.70;;;;;;;28.68;38.33;99385.88;4417529;32;35046;-70
2023/09/13 08:42:59;;;;;;;11.18;5.82;;;;;;;28.82;38.28;99398.28;4418642;32;34161;-70
2023/09/13 08:45:28;;;;;;;13.25;6.15;;;;;;;28.29;36.98;99402.84;4417557;32;33874;-70
2023/09/13 08:48:01;;;;;;;9.52;5.60;;;;;;;28.50;36.72;99397.84;4416110;32;33773;-70
2023/09/13 08:50:30;;;;;;;9.50;5.68;;;;;;;28.55;38.62;99401.56;4417458;32;33892;-71
2023/09/13 08:52:59;;;;;;;11.45;6.28;;;;;;;28.49;38.37;99401.69;4417355;32;34206;-70
2023/09/13 08:55:27;;;;;;;14.15;7.05;;;;;;;28.56;38.23;99397.72;4418272;32;34036;-71
2023/09/13 08:57:56;;;;;;;24.52;6.80;;;;;;;28.60;37.89;99400.81;4417680;32;34450;-70
2023/09/13 09:00:26;;;;;;;20.65;8.60;;;;;;;28.65;37.59;99402.88;4417182;32;34911;-70
2023/09/13 09:02:55;;;;;;;11.43;6.75;;;;;;;28.90;37.43;99397.94;4422525;32;34653;-70
2023/09/13 09:05:26;;;;;;;13.70;5.97;;;;;;;28.66;37.53;99396.28;4437727;32;34492;-70
2023/09/13 09:07:55;;;;;;;12.37;5.82;;;;;;;28.79;36.57;99393.25;4438908;32;34103;-71
2023/09/13 09:10:23;;;;;;;14.35;6.37;;;;;;;28.46;37.57;99391.16;4426702;32;33836;-70
2023/09/13 09:12:53;;;;;;;17.05;6.57;;;;;;;28.48;37.46;99394.53;4424378;32;35054;-70
2023/09/13 09:15:21;;;;;;;12.80;8.15;;;;;;;28.61;37.60;99397.03;4426119;32;33739;-70
2023/09/13 09:17:49;;;;;;;14.85;6.57;;;;;;;28.66;39.17;99407.28;4437231;32;33592;-70
2023/09/13 09:20:19;;;;;;;9.18;5.57;;;;;;;29.00;37.00;99400.94;4427757;32;33693;-71
2023/09/13 09:22:46;;;;;;;15.07;6.97;;;;;;;28.89;37.39;99399.03;4453411;32;32997;-70
2023/09/13 09:25:14;;;;;;;14.50;6.35;;;;;;;29.12;37.09;99397.31;4446778;32;33875;-70
2023/09/13 09:27:42;;;;;;;9.75;5.12;;;;;;;28.94;37.65;99399.09;4448084;32;33972;-70
2023/09/13 09:30:14;;;;;;;14.73;6.57;;;;;;;29.30;37.04;99396.28;4431849;32;33587;-71
2023/09/13 09:32:45;;;;;;;11.50;6.20;;;;;;;29.39;37.19;99395.62;4429613;32;33370;-70
2023/09/13 09:35:15;;;;;;;15.65;7.15;;;;;;;29.45;36.75;99408.44;4427852;32;33489;-67
2023/09/13 09:37:44;;;;;;;12.77;7.22;;;;;;;29.62;36.65;99399.41;4423312;32;33461;-68
2023/09/13 09:40:14;;;;;;;12.75;6.45;;;;;;;29.63;36.62;99396.41;4420168;32;33912;-70
2023/09/13 09:42:42;;;;;;;14.60;7.32;;;;;;;29.46;37.17;99401.84;4424139;32;33813;-70
2023/09/13 09:45:11;;;;;;;10.15;6.12;;;;;;;29.81;35.90;99402.78;4425360;32;33909;-70
2023/09/13 09:47:41;;;;;;;10.98;6.95;;;;;;;29.21;36.42;99393.94;4428935;32;33645;-71
2023/09/13 09:50:16;;;;;;;12.48;6.90;;;;;;;28.90;37.39;99399.84;4418298;32;33546;-71
2023/09/13 09:52:52;;;;;;;;;;;;;;;29.41;35.90;99393.47;4414592;32;33990;-71
2023/09/13 09:55:21;;;;;;;16.60;7.75;;;;;;;30.00;35.18;99387.66;4424797;32;34554;-70
2023/09/13 09:57:51;;;;;;;14.65;6.87;;;;;;;29.20;36.88;99380.38;4419691;32;33085;-71
2023/09/13 10:00:19;;;;;;;12.18;6.75;;;;;;;29.97;34.93;99388.16;4416297;32;33382;-70
2023/09/13 10:02:47;;;;;;;12.55;6.65;;;;;;;30.26;35.68;99382.59;4399003;32;35235;-69
2023/09/13 10:05:18;;;;;;;12.48;6.37;;;;;;;30.29;35.13;99380.16;4433827;32;33579;-71
2023/09/13 10:07:54;;;;;;;10.80;6.12;;;;;;;30.14;34.87;99379.88;4433389;32;33626;-71
2023/09/13 10:10:33;;;;;;;13.23;6.57;;;;;;;29.94;35.65;99380.38;4431912;32;34006;-71
2023/09/13 10:13:04;;;;;;;9.85;5.30;;;;;;;30.38;35.98;99370.34;4430131;32;33867;-71
2023/09/13 10:15:32;;;;;;;10.23;6.10;;;;;;;30.35;35.19;99376.37;4431333;32;33776;-70
2023/09/13 10:18:01;;;;;;;13.10;7.15;;;;;;;30.29;34.73;99368.28;4429617;32;33940;-66
2023/09/13 10:20:31;;;;;;;13.48;7.30;;;;;;;30.68;34.90;99368.28;4431262;32;34888;-67
2023/09/13 10:23:00;;;;;;;11.15;6.93;;;;;;;30.84;34.27;99368.25;4432939;32;33988;-67
2023/09/13 10:25:32;;;;;;;12.60;6.78;;;;;;;30.97;34.67;99368.97;4435523;32;34968;-71
2023/09/13 10:28:03;;;;;;;16.02;7.07;;;;;;;31.01;34.21;99364.59;4449570;32;33138;-72
2023/09/13 10:30:33;;;;;;;10.50;5.20;;;;;;;30.57;34.48;99365.38;4437789;32;33920;-73
2023/09/13 10:33:03;;;;;;;10.90;7.00;;;;;;;30.89;33.72;99366.66;4448241;32;34188;-72
2023/09/13 10:35:32;;;;;;;12.35;7.05;;;;;;;31.07;34.12;99364.38;4466873;32;33991;-73
2023/09/13 10:38:11;;;;;;;16.58;7.45;;;;;;;31.38;33.39;99362.00;4465669;32;33541;-68
2023/09/13 10:40:46;;;;;;;10.48;7.43;;;;;;;31.17;33.58;99371.13;4451895;32;33992;-68
2023/09/13 10:43:14;;;;;;;15.05;7.22;;;;;;;31.14;33.16;99361.47;4466845;32;34207;-69
2023/09/13 10:45:42;;;;;;;10.07;7.70;;;;;;;31.46;32.83;99357.94;4468823;32;34713;-69
2023/09/13 10:48:10;;;;;;;12.23;7.20;;;;;;;31.57;33.49;99362.47;4468704;32;33892;-70
2023/09/13 10:50:38;;;;;;;10.82;7.35;;;;;;;31.64;32.42;99356.75;4454854;32;33668;-70
2023/09/13 10:53:06;;;;;;;10.32;6.95;;;;;;;31.65;31.98;99352.87;4465723;32;34957;-70
2023/09/13 10:55:35;;;;;;;11.85;6.35;;;;;;;31.73;31.56;99341.34;4453554;32;33577;-69
2023/09/13 10:58:03;;;;;;;9.85;6.05;;;;;;;31.47;31.13;99345.78;4453960;32;33202;-69
2023/09/13 11:00:32;;;;;;;8.95;5.90;;;;;;;31.91;31.55;99346.50;4467749;32;35077;-70
2023/09/13 11:03:00;;;;;;;13.23;6.72;;;;;;;32.16;31.64;99340.31;4452475;32;33986;-70
2023/09/13 11:05:29;;;;;;;18.60;7.03;;;;;;;31.66;31.19;99341.56;4465280;32;33945;-68
2023/09/13 11:07:57;;;;;;;12.95;6.43;;;;;;;31.64;31.99;99337.37;4467169;32;34157;-68
2023/09/13 11:10:30;;;;;;;9.43;6.10;;;;;;;31.45;30.58;99343.28;4468467;32;34798;-68
2023/09/13 11:13:10;;;;;;;11.07;6.00;;;;;;;31.31;31.07;99350.31;4467995;32;35047;-68
2023/09/13 11:15:49;;;;;;;9.13;6.40;;;;;;;31.64;29.73;99335.44;4467215;32;35338;-68
2023/09/13 11:18:17;;;;;;;10.25;5.95;;;;;;;32.05;29.34;99341.34;4467223;32;34473;-68
2023/09/13 11:20:45;;;;;;;8.90;6.18;;;;;;;31.74;30.04;99346.59;4468022;32;34623;-69
2023/09/13 11:23:18;;;;;;;13.75;6.25;;;;;;;31.31;29.50;99339.25;4466685;32;35333;-68
2023/09/13 11:26:04;;;;;;;11.32;6.07;;;;;;;31.88;28.88;99335.97;4453438;32;33826;-69
2023/09/13 11:28:38;;;;;;;10.85;6.80;;;;;;;32.42;28.07;99327.44;4463179;32;33620;-68
2023/09/13 11:31:13;;;;;;;10.05;5.90;;;;;;;31.76;28.81;99333.34;4468143;32;33572;-68
2023/09/13 11:33:50;;;;;;;8.30;5.68;;;;;;;31.63;29.36;99341.25;4465999;32;34321;-66
2023/09/13 11:36:18;;;;;;;7.97;5.78;;;;;;;31.54;28.67;99332.59;4459496;32;33738;-69
2023/09/13 11:38:50;;;;;;;8.00;5.55;;;;;;;31.78;28.86;99322.00;4468567;32;33441;-69